Time;durP1;ratioP1;P1;durP2;ratioP2;P2;SDS_P1;SDS_P2;PMS_P1;PMS_P2;Temp;Humidity;BMP_temperature;BMP_pressure;BME280_temperature;BME280_humidity;BME280_pressure;Samples;Min_cycle;Max_cycle;Signal;HPM_P1;HPM_P2
2023/09/04 00:00:16;;;;;;;;;;;14.70;99.90;;;;;;7320970;19;9501;-78
2023/09/04 00:02:47;;;;;;;;;;;14.60;99.90;;;;;;7320797;19;9248;-78
2023/09/04 00:05:18;;;;;;;;;;;14.60;99.90;;;;;;7319072;19;9230;-78
2023/09/04 00:07:47;;;;;;;;;;;14.60;99.90;;;;;;7319749;19;9231;-79
2023/09/04 00:10:16;;;;;;;;;;;14.60;99.90;;;;;;7319074;19;9225;-79
2023/09/04 00:12:48;;;;;;;;;;;14.60;99.90;;;;;;7321211;19;9426;-78
2023/09/04 00:15:17;;;;;;;;;;;14.50;99.90;;;;;;7318255;19;10455;-79
2023/09/04 00:17:46;;;;;;;;;;;14.40;99.90;;;;;;7319356;19;9009;-79
2023/09/04 00:20:15;;;;;;;;;;;14.40;99.90;;;;;;7318031;19;10073;-79
2023/09/04 00:23:04;;;;;;;;;;;14.40;99.90;;;;;;7319492;19;9319;-78
2023/09/04 00:25:33;;;;;;;;;;;14.30;99.90;;;;;;7317310;19;9466;-79
2023/09/04 00:28:25;;;;;;;;;;;14.30;99.90;;;;;;7319518;19;9204;-79
2023/09/04 00:30:56;;;;;;;;;;;14.30;99.90;;;;;;7317723;19;9580;-78
2023/09/04 00:33:25;;;;;;;;;;;14.30;99.90;;;;;;7318795;19;9687;-78
2023/09/04 00:35:54;;;;;;;;;;;14.20;99.90;;;;;;7319106;19;9647;-78
2023/09/04 00:38:23;;;;;;;;;;;14.20;99.90;;;;;;7320597;19;9184;-79
2023/09/04 00:40:52;;;;;;;;;;;14.20;99.90;;;;;;7319279;19;9340;-78
2023/09/04 00:43:23;;;;;;;;;;;14.20;99.90;;;;;;7319082;19;9241;-79
2023/09/04 00:46:13;;;;;;;;;;;14.20;99.90;;;;;;7318790;19;9291;-78
2023/09/04 00:48:43;;;;;;;;;;;14.10;99.90;;;;;;7319357;19;9397;-79
2023/09/04 00:51:14;;;;;;;;;;;14.20;99.90;;;;;;7316344;19;9266;-79
2023/09/04 00:53:43;;;;;;;;;;;14.10;99.90;;;;;;7314600;19;9463;-79
2023/09/04 00:56:15;;;;;;;;;;;14.10;99.90;;;;;;7315181;19;10216;-78
2023/09/04 00:58:47;;;;;;;;;;;14.10;99.90;;;;;;7319596;19;9242;-78
2023/09/04 01:01:16;;;;;;;;;;;14.10;99.90;;;;;;7311754;19;9403;-78
2023/09/04 01:04:06;;;;;;;;;;;14.10;99.90;;;;;;7317167;19;10450;-78
2023/09/04 01:06:35;;;;;;;;;;;14.10;99.90;;;;;;7317798;19;9213;-78
2023/09/04 01:09:26;;;;;;;;;;;14.10;99.90;;;;;;7315317;19;9569;-78
2023/09/04 01:12:02;;;;;;;;;;;14.10;99.90;;;;;;7317921;19;9304;-78
2023/09/04 01:14:38;;;;;;;;;;;14.10;99.90;;;;;;7316995;19;9202;-79
2023/09/04 01:17:07;;;;;;;;;;;14.10;99.90;;;;;;7316815;19;9218;-78
2023/09/04 01:19:41;;;;;;;;;;;14.10;99.90;;;;;;7316637;19;9457;-78
2023/09/04 01:22:12;;;;;;;;;;;14.00;99.90;;;;;;7319923;19;9193;-79
2023/09/04 01:25:01;;;;;;;;;;;14.10;99.90;;;;;;7318534;19;9285;-79
2023/09/04 01:27:41;;;;;;;;;;;14.10;99.90;;;;;;7320319;19;9084;-78
2023/09/04 01:30:20;;;;;;;;;;;14.00;99.90;;;;;;7322150;19;8944;-78
2023/09/04 01:32:59;;;;;;;;;;;14.00;99.90;;;;;;7325492;19;9176;-78
2023/09/04 01:35:32;;;;;;;;;;;14.00;99.90;;;;;;7326407;19;10328;-79
2023/09/04 01:38:05;;;;;;;;;;;14.00;99.90;;;;;;7326673;19;9509;-78
2023/09/04 01:40:35;;;;;;;;;;;14.00;99.90;;;;;;7324093;19;9727;-78
2023/09/04 01:43:04;;;;;;;;;;;13.90;99.90;;;;;;7325085;19;9233;-78
2023/09/04 01:45:33;;;;;;;;;;;13.90;99.90;;;;;;7325636;19;9257;-78
2023/09/04 01:48:22;;;;;;;;;;;13.90;99.90;;;;;;7323234;19;9485;-79
2023/09/04 01:51:11;;;;;;;;;;;13.90;99.90;;;;;;7322105;19;9134;-78
2023/09/04 01:53:44;;;;;;;;;;;13.90;99.90;;;;;;7321926;19;9314;-78
2023/09/04 01:56:13;;;;;;;;;;;13.90;99.90;;;;;;7324584;19;9131;-79
2023/09/04 01:59:02;;;;;;;;;;;13.90;99.90;;;;;;7321335;19;9324;-78
2023/09/04 02:01:31;;;;;;;;;;;13.90;99.90;;;;;;7322505;19;9287;-78
2023/09/04 02:04:01;;;;;;;;;;;13.90;99.90;;;;;;7325591;19;9306;-78
2023/09/04 02:06:31;;;;;;;;;;;13.90;99.90;;;;;;7324705;19;10522;-78
2023/09/04 02:09:04;;;;;;;;;;;14.00;99.90;;;;;;7320402;19;9266;-79
2023/09/04 02:11:33;;;;;;;;;;;13.90;99.90;;;;;;7325650;19;10800;-79
2023/09/04 02:14:22;;;;;;;;;;;13.90;99.90;;;;;;7322298;19;9210;-79
2023/09/04 02:16:51;;;;;;;;;;;13.90;99.90;;;;;;7320774;19;10698;-78
2023/09/04 02:19:20;;;;;;;;;;;13.90;99.90;;;;;;7321584;19;9245;-78
2023/09/04 02:21:49;;;;;;;;;;;13.90;99.90;;;;;;7322557;19;12041;-78
2023/09/04 02:24:20;;;;;;;;;;;13.90;99.90;;;;;;7323784;19;10913;-79
2023/09/04 02:26:49;;;;;;;;;;;13.80;99.90;;;;;;7321448;19;9510;-78
2023/09/04 02:29:18;;;;;;;;;;;13.80;99.90;;;;;;7323544;19;9133;-78
2023/09/04 02:31:47;;;;;;;;;;;13.80;99.90;;;;;;7322488;19;9277;-79
2023/09/04 02:34:17;;;;;;;;;;;13.70;99.90;;;;;;7319416;19;9295;-78
2023/09/04 02:36:45;;;;;;;;;;;13.70;99.90;;;;;;7324023;19;11188;-79
2023/09/04 02:39:14;;;;;;;;;;;13.70;99.90;;;;;;7322704;19;9253;-78
2023/09/04 02:41:46;;;;;;;;;;;13.60;99.90;;;;;;7319814;19;9643;-78
2023/09/04 02:44:15;;;;;;;;;;;13.60;99.90;;;;;;7320665;19;9582;-79
2023/09/04 02:46:44;;;;;;;;;;;13.60;99.90;;;;;;7323470;19;9225;-78
2023/09/04 02:49:13;;;;;;;;;;;13.50;99.90;;;;;;7321125;19;9237;-78
2023/09/04 02:51:42;;;;;;;;;;;13.50;99.90;;;;;;7319693;19;9498;-79
2023/09/04 02:54:11;;;;;;;;;;;13.50;99.90;;;;;;7321588;19;9263;-79
2023/09/04 02:57:03;;;;;;;;;;;13.50;99.90;;;;;;7317104;19;9477;-79
2023/09/04 02:59:32;;;;;;;;;;;13.50;99.90;;;;;;7318283;19;11189;-79
2023/09/04 03:02:01;;;;;;;;;;;13.50;99.90;;;;;;7319381;19;9206;-79
2023/09/04 03:04:31;;;;;;;;;;;13.40;99.90;;;;;;7321881;19;9618;-79
2023/09/04 03:07:00;;;;;;;;;;;13.40;99.90;;;;;;7321075;19;9516;-79
2023/09/04 03:09:49;;;;;;;;;;;13.40;99.90;;;;;;7320244;19;11020;-79
2023/09/04 03:12:21;;;;;;;;;;;13.30;99.90;;;;;;7323571;19;9257;-79
2023/09/04 03:14:52;;;;;;;;;;;13.30;99.90;;;;;;7320894;19;9609;-78
2023/09/04 03:17:21;;;;;;;;;;;13.30;99.90;;;;;;7322563;19;9255;-78
2023/09/04 03:20:12;;;;;;;;;;;13.30;99.90;;;;;;7319139;19;9898;-79
2023/09/04 03:22:41;;;;;;;;;;;13.30;99.90;;;;;;7324571;19;9531;-79
2023/09/04 03:25:10;;;;;;;;;;;13.30;99.90;;;;;;7322912;19;9129;-79
2023/09/04 03:27:42;;;;;;;;;;;13.30;99.90;;;;;;7322120;19;9437;-79
2023/09/04 03:30:14;;;;;;;;;;;13.30;99.90;;;;;;7322162;19;9139;-78
2023/09/04 03:32:43;;;;;;;;;;;13.30;99.90;;;;;;7322153;19;9213;-79
2023/09/04 03:35:13;;;;;;;;;;;13.30;99.90;;;;;;7321956;19;9194;-78
2023/09/04 03:37:42;;;;;;;;;;;13.20;99.90;;;;;;7323484;19;9217;-79
2023/09/04 03:40:21;;;;;;;;;;;13.20;99.90;;;;;;7319752;19;9262;-79
2023/09/04 03:42:53;;;;;;;;;;;13.20;99.90;;;;;;7323703;19;9764;-79
2023/09/04 03:45:22;;;;;;;;;;;13.10;99.90;;;;;;7321045;19;11051;-79
2023/09/04 03:48:11;;;;;;;;;;;13.10;99.90;;;;;;7320820;19;9515;-78
2023/09/04 03:50:40;;;;;;;;;;;13.10;99.90;;;;;;7322361;19;9279;-79
2023/09/04 03:53:09;;;;;;;;;;;13.10;99.90;;;;;;7321295;19;9237;-78
2023/09/04 03:55:39;;;;;;;;;;;13.10;99.90;;;;;;7319049;19;9516;-78
2023/09/04 03:58:10;;;;;;;;;;;13.10;99.90;;;;;;7311649;19;9494;-78
2023/09/04 04:00:39;;;;;;;;;;;13.10;99.90;;;;;;7312941;19;9502;-79
2023/09/04 04:03:08;;;;;;;;;;;13.10;99.90;;;;;;7320652;19;9155;-79
2023/09/04 04:05:57;;;;;;;;;;;13.10;99.90;;;;;;7318398;19;10158;-79
2023/09/04 04:08:26;;;;;;;;;;;13.00;99.90;;;;;;7318790;19;9150;-78
2023/09/04 04:11:00;;;;;;;;;;;12.90;99.90;;;;;;7321881;19;10456;-78
2023/09/04 04:13:31;;;;;;;;;;;12.90;99.90;;;;;;7318681;19;9245;-79
2023/09/04 04:16:01;;;;;;;;;;;12.90;99.90;;;;;;7318858;19;9282;-78
2023/09/04 04:18:30;;;;;;;;;;;12.90;99.90;;;;;;7316730;19;9257;-78
2023/09/04 04:21:00;;;;;;;;;;;12.90;99.90;;;;;;7319707;19;9287;-78
2023/09/04 04:23:29;;;;;;;;;;;12.90;99.90;;;;;;7317660;19;9233;-78
2023/09/04 04:25:58;;;;;;;;;;;12.90;99.90;;;;;;7318083;19;9566;-78
2023/09/04 04:28:27;;;;;;;;;;;12.90;99.90;;;;;;7313777;19;9285;-78
2023/09/04 04:31:02;;;;;;;;;;;12.80;99.90;;;;;;7317705;19;9345;-78
2023/09/04 04:33:31;;;;;;;;;;;12.80;99.90;;;;;;7318974;19;9532;-78
2023/09/04 04:36:03;;;;;;;;;;;12.80;99.90;;;;;;7319612;19;9118;-78
2023/09/04 04:38:35;;;;;;;;;;;12.80;99.90;;;;;;7322473;19;9111;-78
2023/09/04 04:41:04;;;;;;;;;;;12.80;99.90;;;;;;7320949;19;9234;-78
2023/09/04 04:43:34;;;;;;;;;;;12.80;99.90;;;;;;7319750;19;9253;-79
2023/09/04 04:46:06;;;;;;;;;;;12.70;99.90;;;;;;7320521;19;9270;-78
2023/09/04 04:48:35;;;;;;;;;;;12.70;99.90;;;;;;7320988;19;9121;-78
2023/09/04 04:51:07;;;;;;;;;;;12.70;99.90;;;;;;7321416;19;9661;-79
2023/09/04 04:53:37;;;;;;;;;;;12.60;99.90;;;;;;7316024;19;9513;-78
2023/09/04 04:56:07;;;;;;;;;;;12.50;99.90;;;;;;7301301;19;9587;-79
2023/09/04 04:58:36;;;;;;;;;;;12.50;99.90;;;;;;7313278;19;9410;-78
2023/09/04 05:01:10;;;;;;;;;;;12.50;99.90;;;;;;7318072;19;9593;-79
2023/09/04 05:03:39;;;;;;;;;;;12.50;99.90;;;;;;7317079;19;10170;-78
2023/09/04 05:06:28;;;;;;;;;;;12.40;99.90;;;;;;7324607;19;9302;-78
2023/09/04 05:08:57;;;;;;;;;;;12.50;99.90;;;;;;7326934;19;9473;-79
2023/09/04 05:11:26;;;;;;;;;;;12.40;99.90;;;;;;7326418;19;9157;-78
2023/09/04 05:13:55;;;;;;;;;;;12.40;99.90;;;;;;7325712;19;12942;-78
2023/09/04 05:16:27;;;;;;;;;;;12.40;99.90;;;;;;7326841;19;9418;-78
2023/09/04 05:18:57;;;;;;;;;;;12.40;99.90;;;;;;7324944;19;9306;-79
2023/09/04 05:21:26;;;;;;;;;;;12.30;99.90;;;;;;7325538;19;9122;-79
2023/09/04 05:23:55;;;;;;;;;;;12.40;99.90;;;;;;7327155;19;9324;-78
2023/09/04 05:26:24;;;;;;;;;;;12.40;99.90;;;;;;7324306;19;9630;-78
2023/09/04 05:28:53;;;;;;;;;;;12.40;99.90;;;;;;7327042;19;9583;-78
2023/09/04 05:31:22;;;;;;;;;;;12.40;99.90;;;;;;7323339;19;9289;-77
2023/09/04 05:33:54;;;;;;;;;;;12.50;99.90;;;;;;7320972;19;9657;-76
2023/09/04 05:36:23;;;;;;;;;;;12.50;99.90;;;;;;7320279;19;9198;-76
2023/09/04 05:38:52;;;;;;;;;;;12.50;99.90;;;;;;7320567;19;9228;-77
2023/09/04 05:41:21;;;;;;;;;;;12.60;99.90;;;;;;7326153;19;9181;-84
2023/09/04 05:43:50;;;;;;;;;;;12.60;99.90;;;;;;7323635;19;9226;-77
2023/09/04 05:46:19;;;;;;;;;;;12.60;99.90;;;;;;7324593;19;10420;-76
2023/09/04 05:48:48;;;;;;;;;;;12.60;99.90;;;;;;7324045;19;9460;-78
2023/09/04 05:51:19;;;;;;;;;;;12.70;99.90;;;;;;7326662;19;9193;-76
2023/09/04 05:53:48;;;;;;;;;;;12.70;99.90;;;;;;7320400;19;9563;-76
2023/09/04 05:56:18;;;;;;;;;;;12.80;99.90;;;;;;7314982;19;9564;-75
2023/09/04 05:58:49;;;;;;;;;;;12.80;99.90;;;;;;7318925;19;9666;-75
2023/09/04 06:01:20;;;;;;;;;;;12.80;99.90;;;;;;7316838;19;8944;-75
2023/09/04 06:03:49;;;;;;;;;;;12.90;99.90;;;;;;7325504;19;9563;-73
2023/09/04 06:06:41;;;;;;;;;;;13.00;99.90;;;;;;7319229;19;9293;-73
2023/09/04 06:09:10;;;;;;;;;;;13.10;99.90;;;;;;7324996;19;9273;-73
2023/09/04 06:11:39;;;;;;;;;;;13.20;99.90;;;;;;7325392;19;9230;-72
2023/09/04 06:14:08;;;;;;;;;;;13.30;99.90;;;;;;7325409;19;10220;-73
2023/09/04 06:16:57;;;;;;;;;;;13.50;99.90;;;;;;7318544;19;9234;-73
2023/09/04 06:19:26;;;;;;;;;;;13.60;99.90;;;;;;7324496;19;9482;-74
2023/09/04 06:21:58;;;;;;;;;;;13.70;99.90;;;;;;7324911;19;8944;-73
2023/09/04 06:24:27;;;;;;;;;;;13.70;99.90;;;;;;7309862;19;9260;-75
2023/09/04 06:26:56;;;;;;;;;;;13.70;99.90;;;;;;7310781;19;9655;-75
2023/09/04 06:29:25;;;;;;;;;;;13.80;99.90;;;;;;7323375;19;9334;-75
2023/09/04 06:31:54;;;;;;;;;;;13.90;99.90;;;;;;7318229;19;9603;-75
2023/09/04 06:34:23;;;;;;;;;;;14.00;99.90;;;;;;7320446;19;9256;-75
2023/09/04 06:36:52;;;;;;;;;;;14.10;99.90;;;;;;7322431;19;9338;-74
2023/09/04 06:39:23;;;;;;;;;;;14.20;99.90;;;;;;7323548;19;9229;-75
2023/09/04 06:41:52;;;;;;;;;;;14.30;99.90;;;;;;7320725;19;10664;-75
2023/09/04 06:44:21;;;;;;;;;;;14.40;99.90;;;;;;7320672;19;9247;-75
2023/09/04 06:46:50;;;;;;;;;;;14.50;99.90;;;;;;7320623;19;9186;-75
2023/09/04 06:49:19;;;;;;;;;;;14.50;99.90;;;;;;7319483;19;9280;-74
2023/09/04 06:51:48;;;;;;;;;;;14.60;99.90;;;;;;7318722;19;9482;-75
2023/09/04 06:54:17;;;;;;;;;;;14.70;99.90;;;;;;7320383;19;11304;-75
2023/09/04 06:57:09;;;;;;;;;;;14.80;99.90;;;;;;7316199;19;9634;-75
2023/09/04 06:59:38;;;;;;;;;;;14.90;99.90;;;;;;7318338;19;12607;-75
2023/09/04 07:02:07;;;;;;;;;;;15.00;99.90;;;;;;7320232;19;9612;-75
2023/09/04 07:04:38;;;;;;;;;;;15.10;99.90;;;;;;7321500;19;9348;-75
2023/09/04 07:07:28;;;;;;;;;;;15.20;99.90;;;;;;7320576;19;9490;-75
2023/09/04 07:09:57;;;;;;;;;;;15.30;99.90;;;;;;7320753;19;11109;-75
2023/09/04 07:12:28;;;;;;;;;;;15.50;99.90;;;;;;7323883;19;9531;-75
2023/09/04 07:14:57;;;;;;;;;;;15.70;99.90;;;;;;7320672;19;9210;-75
2023/09/04 07:17:26;;;;;;;;;;;15.70;99.90;;;;;;7324027;19;9324;-76
2023/09/04 07:19:55;;;;;;;;;;;15.80;99.90;;;;;;7320007;19;9230;-75
2023/09/04 07:22:24;;;;;;;;;;;15.80;99.90;;;;;;7322790;19;9469;-75
2023/09/04 07:25:13;;;;;;;;;;;16.00;99.90;;;;;;7321306;19;10450;-75
2023/09/04 07:27:45;;;;;;;;;;;16.20;99.90;;;;;;7310385;19;9342;-75
2023/09/04 07:30:15;;;;;;;;;;;16.30;99.90;;;;;;7322310;19;10320;-75
2023/09/04 07:32:44;;;;;;;;;;;16.50;99.90;;;;;;7322417;19;9301;-75
2023/09/04 07:35:13;;;;;;;;;;;16.70;99.90;;;;;;7320892;19;9535;-75
2023/09/04 07:37:42;;;;;;;;;;;17.10;99.90;;;;;;7321601;19;9437;-75
2023/09/04 07:40:12;;;;;;;;;;;17.40;99.90;;;;;;7323052;19;9551;-75
2023/09/04 07:43:04;;;;;;;;;;;17.70;99.90;;;;;;7318581;19;10462;-75
2023/09/04 07:45:33;;;;;;;;;;;18.00;99.90;;;;;;7320181;19;9316;-75
2023/09/04 07:48:03;;;;;;;;;;;18.30;99.90;;;;;;7322545;19;9245;-75
2023/09/04 07:50:53;;;;;;;;;;;18.50;99.90;;;;;;7320474;19;9284;-75
2023/09/04 07:53:41;;;;;;;;;;;18.80;99.90;;;;;;7312122;19;9451;-75
2023/09/04 07:56:10;;;;;;;;;;;19.00;99.90;;;;;;7316259;19;11170;-76
2023/09/04 07:58:44;;;;;;;;;;;19.10;99.90;;;;;;7321318;19;9277;-75
2023/09/04 08:01:14;;;;;;;;;;;19.20;99.90;;;;;;7321111;19;9266;-75
2023/09/04 08:03:43;;;;;;;;;;;19.30;99.90;;;;;;7322152;19;9255;-75
2023/09/04 08:06:12;;;;;;;;;;;19.40;99.90;;;;;;7319460;19;9744;-75
2023/09/04 08:08:42;;;;;;;;;;;19.50;99.90;;;;;;7317790;19;9308;-75
2023/09/04 08:11:10;;;;;;;;;;;19.50;99.90;;;;;;7322047;19;9001;-76
2023/09/04 08:13:39;;;;;;;;;;;19.70;99.90;;;;;;7320862;19;10351;-75
2023/09/04 08:16:31;;;;;;;;;;;19.80;99.90;;;;;;7312536;19;9491;-75
2023/09/04 08:19:00;;;;;;;;;;;19.70;99.90;;;;;;7322236;19;9622;-75
2023/09/04 08:21:29;;;;;;;;;;;19.60;99.90;;;;;;7320715;19;9263;-76
2023/09/04 08:23:58;;;;;;;;;;;19.50;99.90;;;;;;7321302;19;9469;-76
2023/09/04 08:26:47;;;;;;;;;;;19.50;99.90;;;;;;7319831;19;9241;-75
2023/09/04 08:29:16;;;;;;;;;;;19.50;99.90;;;;;;7320714;19;10214;-75
2023/09/04 08:31:48;;;;;;;;;;;19.50;99.90;;;;;;7318450;19;9273;-75
2023/09/04 08:34:17;;;;;;;;;;;19.60;99.90;;;;;;7318373;19;9209;-75
2023/09/04 08:37:06;;;;;;;;;;;19.70;99.90;;;;;;7320330;19;9327;-75
2023/09/04 08:39:55;;;;;;;;;;;19.70;99.90;;;;;;7317861;19;10389;-75
2023/09/04 08:42:25;;;;;;;;;;;19.70;99.90;;;;;;7320228;19;9317;-75
2023/09/04 08:44:56;;;;;;;;;;;19.80;99.90;;;;;;7320335;19;10628;-75
2023/09/04 08:47:28;;;;;;;;;;;19.80;99.90;;;;;;7321160;19;9490;-75
2023/09/04 08:50:02;;;;;;;;;;;19.80;99.90;;;;;;7315956;19;9313;-75
2023/09/04 08:52:52;;;;;;;;;;;19.90;99.90;;;;;;7317769;19;9289;-75
2023/09/04 08:55:22;;;;;;;;;;;20.00;99.90;;;;;;7317398;19;9544;-75
2023/09/04 08:57:51;;;;;;;;;;;20.00;99.90;;;;;;7313011;19;9821;-76
2023/09/04 09:00:21;;;;;;;;;;;20.10;99.90;;;;;;7320997;19;9688;-75
2023/09/04 09:02:53;;;;;;;;;;;20.20;99.90;;;;;;7313898;19;9533;-76
2023/09/04 09:05:23;;;;;;;;;;;20.30;99.90;;;;;;7319875;19;9205;-75
2023/09/04 09:08:13;;;;;;;;;;;20.40;99.90;;;;;;7313990;19;9208;-75
2023/09/04 09:10:45;;;;;;;;;;;20.50;99.90;;;;;;7321225;19;9432;-75
2023/09/04 09:13:17;;;;;;;;;;;20.60;99.90;;;;;;7319192;19;9330;-76
2023/09/04 09:15:46;;;;;;;;;;;20.80;99.90;;;;;;7320053;19;9147;-76
2023/09/04 09:18:36;;;;;;;;;;;20.90;98.40;;;;;;7317705;19;9195;-75
2023/09/04 09:21:23;;;;;;;;;;;20.90;99.50;;;;;;7314741;19;9580;-75
2023/09/04 09:24:11;;;;;;;;;;;21.10;96.10;;;;;;7319114;19;9317;-75
2023/09/04 09:26:41;;;;;;;;;;;21.20;97.60;;;;;;7320544;19;9284;-75
2023/09/04 09:29:12;;;;;;;;;;;21.20;98.10;;;;;;7314187;19;9114;-77
2023/09/04 09:31:42;;;;;;;;;;;21.20;97.80;;;;;;7315799;19;10190;-74
2023/09/04 09:34:16;;;;;;;;;;;21.30;97.10;;;;;;7319615;19;9196;-75
2023/09/04 09:36:45;;;;;;;;;;;21.40;94.80;;;;;;7317994;19;9268;-74
2023/09/04 09:39:14;;;;;;;;;;;21.50;94.20;;;;;;7320424;19;9237;-74
2023/09/04 09:42:05;;;;;;;;;;;21.50;94.40;;;;;;7313410;19;9322;-74
2023/09/04 09:44:34;;;;;;;;;;;21.70;94.70;;;;;;7316030;19;10021;-74
2023/09/04 09:47:03;;;;;;;;;;;21.70;93.40;;;;;;7315199;19;9455;-74
2023/09/04 09:49:40;;;;;;;;;;;21.80;94.60;;;;;;7316302;19;9336;-74
2023/09/04 09:52:10;;;;;;;;;;;21.80;92.40;;;;;;7318601;19;9273;-75
2023/09/04 09:54:42;;;;;;;;;;;21.80;93.40;;;;;;7323018;19;11060;-74
2023/09/04 09:57:13;;;;;;;;;;;21.80;92.60;;;;;;7323334;19;11351;-74
2023/09/04 09:59:45;;;;;;;;;;;21.90;92.10;;;;;;7326408;19;9202;-74
2023/09/04 10:02:21;;;;;;;;;;;21.90;91.90;;;;;;7320538;19;9197;-74
2023/09/04 10:04:53;;;;;;;;;;;21.90;90.80;;;;;;7325488;19;9277;-75
2023/09/04 10:07:27;;;;;;;;;;;22.00;91.70;;;;;;7324438;19;9318;-75
2023/09/04 10:10:04;;;;;;;;;;;22.10;91.90;;;;;;7325142;19;8999;-75
2023/09/04 10:12:38;;;;;;;;;;;22.10;91.30;;;;;;7318817;19;10416;-75
2023/09/04 10:15:10;;;;;;;;;;;22.10;90.50;;;;;;7325578;19;9270;-75
2023/09/04 10:17:43;;;;;;;;;;;22.20;90.90;;;;;;7324106;19;9470;-75
2023/09/04 10:20:16;;;;;;;;;;;22.30;91.00;;;;;;7316403;19;9671;-75
2023/09/04 10:22:49;;;;;;;;;;;22.40;91.00;;;;;;7317160;19;9278;-78
2023/09/04 10:25:31;;;;;;;;;;;22.40;89.40;;;;;;7316500;19;9310;-78
2023/09/04 10:28:09;;;;;;;;;;;22.50;90.20;;;;;;7320124;19;9265;-78
2023/09/04 10:30:41;;;;;;;;;;;22.70;91.00;;;;;;7325265;19;9257;-78
2023/09/04 10:33:12;;;;;;;;;;;22.70;90.30;;;;;;7325242;19;9305;-77
2023/09/04 10:35:44;;;;;;;;;;;22.80;90.50;;;;;;7323439;19;9559;-77
2023/09/04 10:38:15;;;;;;;;;;;23.00;90.60;;;;;;7319171;19;9261;-78
2023/09/04 10:40:46;;;;;;;;;;;23.10;91.20;;;;;;7325245;19;9225;-82
2023/09/04 10:43:15;;;;;;;;;;;23.20;86.60;;;;;;7322755;19;8995;-82
2023/09/04 10:45:44;;;;;;;;;;;23.20;86.40;;;;;;7321200;19;10796;-78
2023/09/04 10:48:13;;;;;;;;;;;23.20;86.50;;;;;;7324112;19;9316;-78
2023/09/04 10:50:45;;;;;;;;;;;23.20;86.00;;;;;;7322174;19;9242;-79
2023/09/04 10:53:14;;;;;;;;;;;23.30;83.10;;;;;;7320661;19;9223;-78
2023/09/04 10:55:43;;;;;;;;;;;23.30;81.50;;;;;;7322343;19;9263;-78
2023/09/04 10:58:12;;;;;;;;;;;23.30;81.80;;;;;;7321800;19;9279;-78
2023/09/04 11:00:43;;;;;;;;;;;23.30;83.80;;;;;;7323336;19;9605;-78
2023/09/04 11:03:17;;;;;;;;;;;23.40;81.80;;;;;;7319983;19;9064;-77
2023/09/04 11:06:19;;;;;;;;;;;23.40;78.50;;;;;;7325210;19;9119;-77
2023/09/04 11:08:53;;;;;;;;;;;23.40;78.20;;;;;;7319762;19;9257;-76
2023/09/04 11:11:27;;;;;;;;;;;23.50;81.60;;;;;;7320132;19;8996;-80
2023/09/04 11:14:01;;;;;;;;;;;23.60;80.50;;;;;;7326025;19;9305;-79
2023/09/04 11:16:34;;;;;;;;;;;23.60;82.40;;;;;;7321063;19;9383;-75
2023/09/04 11:19:07;;;;;;;;;;;23.70;81.80;;;;;;7323763;19;9263;-74
2023/09/04 11:21:44;;;;;;;;;;;23.70;82.10;;;;;;7321379;19;9525;-74
2023/09/04 11:24:14;;;;;;;;;;;23.80;83.40;;;;;;7323723;19;9486;-76
2023/09/04 11:26:43;;;;;;;;;;;23.80;82.40;;;;;;7316498;19;9334;-79
2023/09/04 11:29:11;;;;;;;;;;;23.90;80.70;;;;;;7305902;19;9642;-79
2023/09/04 11:31:41;;;;;;;;;;;23.90;78.80;;;;;;7321640;19;9291;-79
2023/09/04 11:34:10;;;;;;;;;;;23.90;78.80;;;;;;7321861;19;9391;-79
2023/09/04 11:36:42;;;;;;;;;;;23.90;79.40;;;;;;7320092;19;8942;-78
2023/09/04 11:39:12;;;;;;;;;;;24.00;79.70;;;;;;7315715;19;9339;-79
2023/09/04 11:41:42;;;;;;;;;;;24.10;78.50;;;;;;7321057;19;9421;-78
2023/09/04 11:44:11;;;;;;;;;;;24.10;78.60;;;;;;7315535;19;9512;-79
2023/09/04 11:46:41;;;;;;;;;;;24.10;78.60;;;;;;7318262;19;9466;-79
2023/09/04 11:49:10;;;;;;;;;;;24.10;79.10;;;;;;7313466;19;9204;-78
2023/09/04 11:51:44;;;;;;;;;;;24.20;79.30;;;;;;7313400;19;9633;-78
2023/09/04 11:54:13;;;;;;;;;;;24.20;78.20;;;;;;7310550;19;9292;-79
2023/09/04 11:56:43;;;;;;;;;;;24.20;78.10;;;;;;7314208;19;8944;-78
2023/09/04 11:59:12;;;;;;;;;;;24.20;79.40;;;;;;7320803;19;9620;-78
2023/09/04 12:01:45;;;;;;;;;;;24.30;79.40;;;;;;7319052;19;9238;-78
2023/09/04 12:04:14;;;;;;;;;;;24.40;79.50;;;;;;7322539;19;9233;-78
2023/09/04 12:07:08;;;;;;;;;;;24.40;79.50;;;;;;7315331;19;9221;-79
2023/09/04 12:09:39;;;;;;;;;;;24.30;76.80;;;;;;7312515;19;9341;-78
2023/09/04 12:12:09;;;;;;;;;;;24.20;74.80;;;;;;7321329;19;9445;-79
2023/09/04 12:14:44;;;;;;;;;;;24.20;75.10;;;;;;7319459;19;9319;-79
2023/09/04 12:17:14;;;;;;;;;;;24.30;77.00;;;;;;7315955;19;9270;-78
2023/09/04 12:19:44;;;;;;;;;;;24.40;77.30;;;;;;7318739;19;9158;-78
2023/09/04 12:22:19;;;;;;;;;;;24.40;77.20;;;;;;7317078;19;9260;-78
2023/09/04 12:25:04;;;;;;;;;;;24.50;76.30;;;;;;7311733;19;9257;-78
2023/09/04 12:27:33;;;;;;;;;;;24.50;76.50;;;;;;7318171;19;8992;-78
2023/09/04 12:30:02;;;;;;;;;;;24.60;76.20;;;;;;7316490;19;9229;-78
2023/09/04 12:32:31;;;;;;;;;;;24.60;75.30;;;;;;7319429;19;9554;-79
2023/09/04 12:35:04;;;;;;;;;;;24.50;74.10;;;;;;7311557;19;9509;-79
2023/09/04 12:37:56;;;;;;;;;;;24.60;75.10;;;;;;7316328;19;9497;-79
2023/09/04 12:40:25;;;;;;;;;;;24.60;75.60;;;;;;7319069;19;10174;-78
2023/09/04 12:42:55;;;;;;;;;;;24.70;75.80;;;;;;7318614;19;9433;-78
2023/09/04 12:45:24;;;;;;;;;;;24.70;74.40;;;;;;7308939;19;9314;-78
2023/09/04 12:47:53;;;;;;;;;;;24.70;72.90;;;;;;7313995;19;9457;-78
2023/09/04 12:50:22;;;;;;;;;;;24.70;72.90;;;;;;7320324;19;9217;-78
2023/09/04 12:53:14;;;;;;;;;;;24.70;72.30;;;;;;7314760;19;9313;-79
2023/09/04 12:55:43;;;;;;;;;;;24.60;70.80;;;;;;7317173;19;9246;-79
2023/09/04 12:58:14;;;;;;;;;;;24.50;71.70;;;;;;7312372;19;9257;-78
2023/09/04 13:01:05;;;;;;;;;;;24.50;71.00;;;;;;7319393;19;9516;-78
2023/09/04 13:03:34;;;;;;;;;;;24.50;70.40;;;;;;7317369;19;9475;-78
2023/09/04 13:06:03;;;;;;;;;;;24.40;71.20;;;;;;7315618;19;9252;-78
2023/09/04 13:08:34;;;;;;;;;;;24.40;71.80;;;;;;7305770;19;8945;-78
2023/09/04 13:11:03;;;;;;;;;;;24.50;72.70;;;;;;7314161;19;9369;-78
2023/09/04 13:13:32;;;;;;;;;;;24.50;72.70;;;;;;7315975;19;9383;-78
2023/09/04 13:16:02;;;;;;;;;;;24.50;73.30;;;;;;7316981;19;9058;-78
2023/09/04 13:18:30;;;;;;;;;;;24.50;72.70;;;;;;7319414;19;9112;-78
2023/09/04 13:20:59;;;;;;;;;;;24.50;73.40;;;;;;7319033;19;9438;-78
2023/09/04 13:23:29;;;;;;;;;;;24.60;72.70;;;;;;7314600;19;9294;-78
2023/09/04 13:26:00;;;;;;;;;;;24.60;73.50;;;;;;7317810;19;9237;-82
2023/09/04 13:28:32;;;;;;;;;;;24.60;72.70;;;;;;7329865;19;9233;-78
2023/09/04 13:31:02;;;;;;;;;;;24.60;71.80;;;;;;7323359;19;9317;-80
2023/09/04 13:33:33;;;;;;;;;;;24.60;72.30;;;;;;7322702;19;9337;-79
2023/09/04 13:36:05;;;;;;;;;;;24.70;72.60;;;;;;7332882;19;9521;-80
2023/09/04 13:38:54;;;;;;;;;;;24.70;73.40;;;;;;7326247;19;10821;-77
2023/09/04 13:41:26;;;;;;;;;;;24.80;72.10;;;;;;7326382;19;9288;-79
2023/09/04 13:43:56;;;;;;;;;;;24.80;70.60;;;;;;7323754;19;10690;-80
2023/09/04 13:46:25;;;;;;;;;;;24.80;71.10;;;;;;7325048;19;10204;-80
2023/09/04 13:48:54;;;;;;;;;;;24.80;71.90;;;;;;7324313;19;9629;-81
2023/09/04 13:51:43;;;;;;;;;;;24.80;71.20;;;;;;7319765;19;9249;-83
2023/09/04 13:54:12;;;;;;;;;;;24.80;70.80;;;;;;7325156;19;9308;-82
2023/09/04 13:56:46;;;;;;;;;;;24.90;71.60;;;;;;7323210;19;9310;-79
2023/09/04 13:59:15;;;;;;;;;;;24.90;71.40;;;;;;7322963;19;9273;-75
2023/09/04 14:01:46;;;;;;;;;;;24.90;72.30;;;;;;7324548;19;9225;-82
2023/09/04 14:04:15;;;;;;;;;;;25.00;70.40;;;;;;7319319;19;9476;-78
2023/09/04 14:06:44;;;;;;;;;;;25.00;70.50;;;;;;7321910;19;9456;-79
2023/09/04 14:09:14;;;;;;;;;;;25.00;70.10;;;;;;7317340;19;9248;-78
2023/09/04 14:11:45;;;;;;;;;;;25.00;70.80;;;;;;7317967;19;9245;-78
2023/09/04 14:14:14;;;;;;;;;;;25.00;72.00;;;;;;7316664;19;9562;-78
2023/09/04 14:16:43;;;;;;;;;;;24.90;69.30;;;;;;7319603;19;9273;-78
2023/09/04 14:19:13;;;;;;;;;;;25.00;69.00;;;;;;7319225;19;9292;-78
2023/09/04 14:21:42;;;;;;;;;;;24.90;68.50;;;;;;7318504;19;9256;-78
2023/09/04 14:24:11;;;;;;;;;;;25.00;69.30;;;;;;7320755;19;9387;-78
2023/09/04 14:26:40;;;;;;;;;;;25.00;69.10;;;;;;7318023;19;10102;-77
2023/09/04 14:29:11;;;;;;;;;;;24.90;68.40;;;;;;7324118;19;9270;-78
2023/09/04 14:31:40;;;;;;;;;;;24.90;68.10;;;;;;7323828;19;9257;-83
2023/09/04 14:34:09;;;;;;;;;;;24.90;67.90;;;;;;7322644;19;9478;-85
2023/09/04 14:36:58;;;;;;;;;;;24.90;69.30;;;;;;7322654;19;9171;-84
2023/09/04 14:39:27;;;;;;;;;;;24.90;68.60;;;;;;7326143;19;9245;-78
2023/09/04 14:41:56;;;;;;;;;;;24.90;67.20;;;;;;7323727;19;9404;-83
2023/09/04 14:44:29;;;;;;;;;;;24.90;68.20;;;;;;7323589;19;9333;-84
2023/09/04 14:46:58;;;;;;;;;;;24.90;68.00;;;;;;7318596;19;9847;-83
2023/09/04 14:49:50;;;;;;;;;;;24.90;68.30;;;;;;7322464;19;9435;-84
2023/09/04 14:52:19;;;;;;;;;;;24.90;68.00;;;;;;7322624;19;9631;-79
2023/09/04 14:54:48;;;;;;;;;;;24.80;69.20;;;;;;7323998;19;9329;-80
2023/09/04 14:57:37;;;;;;;;;;;24.70;68.90;;;;;;7323322;19;9297;-80
2023/09/04 15:00:09;;;;;;;;;;;24.70;68.80;;;;;;7318508;19;9484;-79